createdAt,value
2017-09-06T00:00:30.290Z,61.6
2017-09-06T00:01:30.932Z,61.3
2017-09-06T00:02:31.580Z,61.8
2017-09-06T00:03:32.218Z,61.8
2017-09-06T00:04:32.861Z,61.7
2017-09-06T00:05:33.503Z,61.4
2017-09-06T00:06:34.147Z,61.5
2017-09-06T00:07:34.790Z,61.4
2017-09-06T00:08:35.434Z,61.5
2017-09-06T00:09:36.077Z,61.5
2017-09-06T00:10:36.721Z,61.5
2017-09-06T00:11:37.514Z,61.4
2017-09-06T00:12:38.157Z,61.5
2017-09-06T00:13:38.798Z,61.6
2017-09-06T00:14:39.439Z,61.8
2017-09-06T00:15:40.081Z,61.6
2017-09-06T00:16:40.728Z,61.5
2017-09-06T00:17:41.364Z,61.5
2017-09-06T00:18:42.009Z,61.6
2017-09-06T00:19:42.651Z,61.4
2017-09-06T00:20:43.295Z,61.4
2017-09-06T00:21:43.939Z,61.5
2017-09-06T00:22:44.584Z,61.7
2017-09-06T00:23:45.226Z,61.4
2017-09-06T00:24:45.868Z,61.6
2017-09-06T00:25:46.511Z,61.6
2017-09-06T00:26:47.406Z,61.7
2017-09-06T00:27:48.048Z,61.5
2017-09-06T00:28:48.691Z,61.5
2017-09-06T00:29:49.334Z,61.5
2017-09-06T00:30:49.976Z,61.8
2017-09-06T00:31:50.619Z,61.5
2017-09-06T00:32:51.262Z,61.6
2017-09-06T00:33:51.906Z,61.5
2017-09-06T00:34:52.549Z,61.5
2017-09-06T00:35:53.194Z,61.4
2017-09-06T00:36:53.836Z,61.7
2017-09-06T00:37:54.480Z,61.4
2017-09-06T00:38:55.123Z,61.3
2017-09-06T00:39:55.767Z,61.7
2017-09-06T00:40:56.410Z,61.5
2017-09-06T00:41:57.305Z,61.6
2017-09-06T00:42:57.946Z,61.6
2017-09-06T00:43:58.590Z,61.6
2017-09-06T00:44:59.230Z,61.5
2017-09-06T00:45:59.873Z,61.7
2017-09-06T00:47:00.519Z,61.6
2017-09-06T00:48:01.165Z,61.6
2017-09-06T00:49:01.807Z,61.5
2017-09-06T00:50:02.450Z,61.7
2017-09-06T00:51:03.093Z,61.5
2017-09-06T00:52:03.769Z,61.6
2017-09-06T00:53:04.481Z,61.5
2017-09-06T00:54:05.127Z,61.9
2017-09-06T00:55:05.769Z,61.7
2017-09-06T00:56:06.414Z,61.5
2017-09-06T00:57:07.207Z,61.6
2017-09-06T00:58:07.849Z,61.5
2017-09-06T00:59:08.493Z,61.5
2017-09-06T01:00:09.137Z,61.6
2017-09-06T01:01:09.782Z,61.5
2017-09-06T01:02:10.425Z,61.6
2017-09-06T01:03:11.068Z,61.6
2017-09-06T01:04:11.742Z,61.7
2017-09-06T01:05:12.356Z,61.7
2017-09-06T01:06:13.001Z,61.5
2017-09-06T01:07:13.642Z,61.5
2017-09-06T01:08:14.285Z,61.6
2017-09-06T01:09:14.926Z,61.5
2017-09-06T01:10:15.568Z,61.4
2017-09-06T01:11:16.209Z,61.6
2017-09-06T01:12:17.101Z,61.5
2017-09-06T01:13:17.744Z,61.7
2017-09-06T01:14:18.387Z,61.6
2017-09-06T01:15:19.030Z,61.4
2017-09-06T01:16:19.671Z,61.5
2017-09-06T01:17:20.314Z,61.5
2017-09-06T01:18:20.956Z,61.6
2017-09-06T01:19:21.596Z,61.6
2017-09-06T01:20:22.238Z,61.4
2017-09-06T01:21:22.882Z,61.5
2017-09-06T01:22:23.525Z,61.6
2017-09-06T01:23:24.170Z,61.6
2017-09-06T01:24:24.813Z,61.6
2017-09-06T01:25:25.456Z,61.6
2017-09-06T01:26:26.099Z,61.6
2017-09-06T01:27:26.843Z,61.6
2017-09-06T01:28:27.484Z,61.4
2017-09-06T01:29:28.126Z,61.4
2017-09-06T01:30:28.769Z,61.8
2017-09-06T01:31:29.411Z,61.8
2017-09-06T01:32:30.053Z,61.7
2017-09-06T01:33:30.696Z,61.8
2017-09-06T01:34:31.338Z,61.7
2017-09-06T01:35:31.982Z,61.3
2017-09-06T01:36:32.624Z,61.4
2017-09-06T01:37:33.267Z,61.8
2017-09-06T01:38:33.915Z,61.5
2017-09-06T01:39:34.556Z,61.7
2017-09-06T01:40:35.198Z,61.6
2017-09-06T01:41:35.843Z,61.4
2017-09-06T01:42:36.736Z,61.5
2017-09-06T01:43:37.379Z,61.5
2017-09-06T01:44:38.020Z,61.6
2017-09-06T01:45:38.662Z,61.8
2017-09-06T01:46:39.304Z,61.4
2017-09-06T01:47:39.945Z,61.7
2017-09-06T01:48:40.591Z,61.7
2017-09-06T01:49:41.234Z,61.7
2017-09-06T01:50:41.877Z,61.9
2017-09-06T01:51:42.521Z,61.6
2017-09-06T01:52:43.165Z,61.4
2017-09-06T01:53:43.809Z,61.8
2017-09-06T01:54:44.451Z,61.8
2017-09-06T01:55:45.094Z,61.9
2017-09-06T01:56:45.739Z,61.8
2017-09-06T01:57:46.483Z,61.2
2017-09-06T01:58:47.126Z,61.7
2017-09-06T01:59:47.769Z,61.8
2017-09-06T02:00:48.414Z,62.0
2017-09-06T02:01:49.053Z,61.5
2017-09-06T02:02:49.699Z,61.4
2017-09-06T02:03:50.339Z,61.5
2017-09-06T02:04:50.981Z,61.4
2017-09-06T02:05:51.623Z,61.2
2017-09-06T02:06:52.275Z,61.6
2017-09-06T02:07:52.910Z,61.4
2017-09-06T02:08:53.554Z,61.6
2017-09-06T02:09:54.199Z,61.2
2017-09-06T02:10:54.842Z,61.3
2017-09-06T02:11:55.485Z,61.8
2017-09-06T02:12:56.231Z,61.8
2017-09-06T02:13:56.871Z,61.6
2017-09-06T02:14:57.513Z,61.9
2017-09-06T02:15:58.155Z,61.6
2017-09-06T02:16:58.797Z,61.9
2017-09-06T02:17:59.439Z,61.4
2017-09-06T02:19:00.084Z,61.6
2017-09-06T02:20:00.725Z,61.4
2017-09-06T02:21:01.368Z,61.3
2017-09-06T02:22:02.011Z,61.8
2017-09-06T02:23:02.654Z,61.4
2017-09-06T02:24:03.297Z,61.9
2017-09-06T02:25:03.941Z,61.2
2017-09-06T02:26:04.582Z,61.7
2017-09-06T02:27:05.224Z,61.5
2017-09-06T02:28:06.120Z,61.5
2017-09-06T02:29:06.758Z,61.9
2017-09-06T02:30:07.402Z,62.0
2017-09-06T02:31:08.043Z,61.6
2017-09-06T02:32:08.724Z,61.6
2017-09-06T02:33:09.367Z,61.4
2017-09-06T02:34:10.007Z,61.5
2017-09-06T02:35:10.648Z,62.1
2017-09-06T02:36:11.290Z,61.5
2017-09-06T02:37:11.933Z,61.5
2017-09-06T02:38:12.575Z,61.8
2017-09-06T02:39:13.225Z,61.5
2017-09-06T02:40:13.861Z,61.5
2017-09-06T02:41:14.505Z,61.6
2017-09-06T02:42:15.147Z,61.8
2017-09-06T02:43:15.892Z,61.8
2017-09-06T02:44:16.533Z,61.4
2017-09-06T02:45:17.175Z,61.6
2017-09-06T02:46:17.816Z,61.9
2017-09-06T02:47:18.459Z,61.7
2017-09-06T02:48:19.099Z,61.6
2017-09-06T02:49:19.742Z,61.5
2017-09-06T02:50:20.384Z,61.5
2017-09-06T02:51:21.029Z,61.6
2017-09-06T02:52:21.676Z,61.6
2017-09-06T02:53:22.316Z,61.9
2017-09-06T02:54:22.958Z,61.8
2017-09-06T02:55:23.602Z,61.5
2017-09-06T02:56:24.246Z,61.4
2017-09-06T02:57:24.892Z,61.5
2017-09-06T02:58:25.633Z,61.9
2017-09-06T02:59:26.276Z,62.0
2017-09-06T03:00:26.917Z,62.2
2017-09-06T03:01:27.561Z,61.9
2017-09-06T03:02:28.202Z,61.9
2017-09-06T03:03:28.843Z,61.4
2017-09-06T03:04:29.484Z,62.1
2017-09-06T03:05:30.128Z,61.8
2017-09-06T03:06:30.771Z,61.6
2017-09-06T03:07:31.414Z,61.4
2017-09-06T03:08:32.058Z,61.8
2017-09-06T03:09:32.703Z,61.8
2017-09-06T03:10:33.346Z,62.0
2017-09-06T03:11:33.989Z,61.5
2017-09-06T03:12:34.634Z,61.8
2017-09-06T03:13:35.378Z,61.5
2017-09-06T03:14:36.021Z,61.5
2017-09-06T03:15:36.663Z,61.8
2017-09-06T03:16:37.305Z,61.4
2017-09-06T03:17:37.948Z,61.6
2017-09-06T03:18:38.590Z,61.9
2017-09-06T03:19:39.233Z,62.0
2017-09-06T03:20:39.875Z,61.8
2017-09-06T03:21:40.521Z,61.6
2017-09-06T03:22:41.167Z,61.9
2017-09-06T03:23:41.809Z,61.7
2017-09-06T03:24:42.456Z,61.5
2017-09-06T03:25:43.103Z,61.9
2017-09-06T03:26:43.745Z,62.0
2017-09-06T03:27:44.386Z,62.0
2017-09-06T03:28:45.229Z,61.5
2017-09-06T03:29:45.870Z,62.0
2017-09-06T03:30:46.513Z,62.2
2017-09-06T03:31:47.154Z,61.8
2017-09-06T03:32:47.798Z,61.6
2017-09-06T03:33:48.441Z,61.8
2017-09-06T03:34:49.085Z,61.9
2017-09-06T03:35:49.727Z,62.2
2017-09-06T03:36:50.371Z,62.2
2017-09-06T03:37:51.013Z,62.3
2017-09-06T03:38:51.657Z,61.9
2017-09-06T03:39:52.300Z,62.0
2017-09-06T03:40:52.944Z,61.8
2017-09-06T03:41:53.586Z,62.1
2017-09-06T03:42:54.228Z,62.0
2017-09-06T03:43:55.121Z,62.2
2017-09-06T03:44:55.770Z,62.3
2017-09-06T03:45:56.406Z,61.8
2017-09-06T03:46:57.048Z,61.7
2017-09-06T03:47:57.691Z,62.2
2017-09-06T03:48:58.333Z,62.3
2017-09-06T03:49:58.975Z,62.0
2017-09-06T03:50:59.619Z,62.2
2017-09-06T03:52:00.263Z,62.0
2017-09-06T03:53:00.905Z,62.5
2017-09-06T03:54:01.584Z,61.9
2017-09-06T03:55:02.192Z,62.2
2017-09-06T03:56:02.835Z,62.5
2017-09-06T03:57:03.479Z,62.2
2017-09-06T03:58:04.123Z,61.8
2017-09-06T03:59:04.867Z,62.2
2017-09-06T04:00:05.510Z,61.9
2017-09-06T04:01:06.156Z,62.3
2017-09-06T04:02:06.794Z,62.2
2017-09-06T04:03:07.435Z,61.9
2017-09-06T04:04:08.077Z,61.9
2017-09-06T04:05:08.719Z,62.1
2017-09-06T04:06:09.363Z,62.2
2017-09-06T04:07:10.005Z,62.3
2017-09-06T04:08:10.649Z,62.4
2017-09-06T04:09:11.291Z,62.3
2017-09-06T04:10:11.934Z,61.9
2017-09-06T04:11:12.583Z,62.2
2017-09-06T04:12:13.264Z,62.4
2017-09-06T04:13:13.908Z,62.1
2017-09-06T04:14:14.652Z,62.1
2017-09-06T04:15:15.301Z,62.2
2017-09-06T04:16:15.945Z,62.3
2017-09-06T04:17:16.588Z,62.4
2017-09-06T04:18:17.231Z,62.4
2017-09-06T04:19:17.875Z,62.2
2017-09-06T04:20:18.517Z,62.4
2017-09-06T04:21:19.161Z,61.9
2017-09-06T04:22:19.805Z,62.3
2017-09-06T04:23:20.449Z,62.4
2017-09-06T04:24:21.087Z,62.2
2017-09-06T04:25:21.731Z,62.4
2017-09-06T04:26:22.373Z,62.4
2017-09-06T04:27:23.014Z,62.6
2017-09-06T04:28:23.657Z,62.2
2017-09-06T04:29:24.549Z,62.2
2017-09-06T04:30:25.194Z,62.4
2017-09-06T04:31:25.835Z,62.4
2017-09-06T04:32:26.479Z,62.4
2017-09-06T04:33:27.122Z,62.6
2017-09-06T04:34:27.765Z,62.4
2017-09-06T04:35:28.407Z,62.2
2017-09-06T04:36:29.049Z,62.3
2017-09-06T04:37:29.691Z,62.4
2017-09-06T04:38:30.333Z,62.4
2017-09-06T04:39:30.981Z,62.3
2017-09-06T04:40:31.617Z,62.5
2017-09-06T04:41:32.261Z,62.4
2017-09-06T04:42:32.903Z,62.3
2017-09-06T04:43:33.545Z,62.3
2017-09-06T04:44:34.289Z,62.2
2017-09-06T04:45:34.932Z,62.2
2017-09-06T04:46:35.577Z,62.2
2017-09-06T04:47:36.220Z,62.5
2017-09-06T04:48:36.865Z,62.4
2017-09-06T04:49:37.508Z,62.4
2017-09-06T04:50:38.151Z,62.5
2017-09-06T04:51:38.794Z,62.2
2017-09-06T04:52:39.437Z,62.4
2017-09-06T04:53:40.077Z,62.2
2017-09-06T04:54:40.720Z,62.2
2017-09-06T04:55:41.362Z,62.1
2017-09-06T04:56:42.004Z,62.2
2017-09-06T04:57:42.647Z,62.0
2017-09-06T04:58:43.291Z,62.2
2017-09-06T04:59:44.085Z,62.2
2017-09-06T05:00:44.729Z,62.3
2017-09-06T05:01:45.370Z,62.3
2017-09-06T05:02:46.014Z,62.2
2017-09-06T05:03:46.656Z,62.4
2017-09-06T05:04:47.305Z,62.2
2017-09-06T05:05:47.943Z,62.1
2017-09-06T05:06:48.590Z,62.3
2017-09-06T05:07:49.240Z,62.1
2017-09-06T05:08:49.874Z,62.2
2017-09-06T05:09:50.517Z,62.1
2017-09-06T05:10:51.161Z,62.2
2017-09-06T05:11:51.804Z,62.2
2017-09-06T05:12:52.449Z,62.2
2017-09-06T05:13:53.093Z,62.2
2017-09-06T05:14:53.986Z,62.1
2017-09-06T05:15:54.630Z,62.4
2017-09-06T05:16:55.270Z,62.2
2017-09-06T05:17:55.914Z,62.5
2017-09-06T05:18:56.557Z,62.2
2017-09-06T05:19:57.200Z,62.2
2017-09-06T05:20:57.841Z,62.2
2017-09-06T05:21:58.486Z,62.3
2017-09-06T05:22:59.132Z,62.2
2017-09-06T05:23:59.775Z,62.3
2017-09-06T05:25:00.418Z,62.2
2017-09-06T05:26:01.061Z,62.1
2017-09-06T05:27:01.701Z,62.3
2017-09-06T05:28:02.345Z,62.2
2017-09-06T05:29:02.985Z,62.2
2017-09-06T05:30:03.729Z,62.2
2017-09-06T05:31:04.371Z,62.0
2017-09-06T05:32:05.240Z,62.3
2017-09-06T05:33:05.882Z,62.1
2017-09-06T05:34:06.523Z,62.2
2017-09-06T05:35:07.167Z,62.2
2017-09-06T05:36:07.811Z,62.2
2017-09-06T05:37:08.454Z,62.1
2017-09-06T05:38:09.095Z,62.2
2017-09-06T05:39:09.740Z,62.2
2017-09-06T05:40:10.383Z,62.3
2017-09-06T05:41:11.028Z,62.0
2017-09-06T05:42:11.669Z,62.2
2017-09-06T05:43:12.312Z,62.3
2017-09-06T05:44:12.955Z,62.0
2017-09-06T05:45:13.749Z,62.6
2017-09-06T05:46:14.392Z,62.3
2017-09-06T05:47:15.035Z,62.4
2017-09-06T05:48:15.677Z,62.2
2017-09-06T05:49:16.321Z,62.0
2017-09-06T05:50:16.962Z,62.2
2017-09-06T05:51:17.605Z,62.0
2017-09-06T05:52:18.285Z,62.2
2017-09-06T05:53:18.930Z,62.2
2017-09-06T05:54:19.572Z,62.2
2017-09-06T05:55:20.216Z,62.1
2017-09-06T05:56:20.856Z,62.1
2017-09-06T05:57:21.500Z,62.4
2017-09-06T05:58:22.146Z,62.5
2017-09-06T05:59:22.790Z,62.1
2017-09-06T06:00:23.684Z,62.8
2017-09-06T06:01:24.328Z,62.2
2017-09-06T06:02:24.972Z,62.8
2017-09-06T06:03:25.616Z,62.6
2017-09-06T06:04:26.358Z,62.6
2017-09-06T06:05:27.000Z,62.7
2017-09-06T06:06:27.642Z,62.7
2017-09-06T06:07:28.285Z,62.8
2017-09-06T06:08:28.928Z,62.8
2017-09-06T06:09:29.872Z,62.7
2017-09-06T06:10:30.514Z,62.7
2017-09-06T06:11:31.158Z,62.8
2017-09-06T06:12:31.799Z,62.6
2017-09-06T06:13:32.443Z,63.3
2017-09-06T06:14:33.085Z,64.0
2017-09-06T06:15:33.729Z,64.2
2017-09-06T06:16:34.372Z,64.8
2017-09-06T06:17:35.014Z,65.3
2017-09-06T06:18:35.661Z,65.0
2017-09-06T06:19:36.302Z,65.0
2017-09-06T06:20:36.947Z,65.9
2017-09-06T06:21:37.591Z,66.1
2017-09-06T06:22:38.234Z,66.1
2017-09-06T06:23:30.384Z,68.3
2017-09-06T06:24:31.001Z,71.5
2017-09-06T06:25:31.744Z,73.7
2017-09-06T06:26:32.388Z,73.3
2017-09-06T06:27:33.030Z,73.5
2017-09-06T06:28:33.675Z,73.5
2017-09-06T06:29:34.317Z,74.2
2017-09-06T06:30:34.961Z,74.9
2017-09-06T06:31:35.859Z,75.6
2017-09-06T06:32:36.506Z,77.2
2017-09-06T06:33:37.143Z,76.9
2017-09-06T06:34:37.784Z,75.6
2017-09-06T06:35:38.426Z,73.8
2017-09-06T06:36:39.068Z,72.5
2017-09-06T06:37:39.714Z,71.6
2017-09-06T06:38:40.353Z,71.1
2017-09-06T06:39:40.995Z,71.3
2017-09-06T06:40:41.790Z,70.0
2017-09-06T06:41:42.535Z,69.8
2017-09-06T06:42:43.178Z,69.6
2017-09-06T06:43:43.820Z,69.9
2017-09-06T06:44:44.468Z,68.9
2017-09-06T06:45:45.106Z,69.1
2017-09-06T06:46:45.751Z,69.1
2017-09-06T06:47:46.394Z,68.6
2017-09-06T06:48:47.038Z,68.7
2017-09-06T06:49:47.684Z,68.5
2017-09-06T06:50:48.325Z,68.7
2017-09-06T06:51:48.975Z,68.3
2017-09-06T06:52:49.617Z,68.4
2017-09-06T06:53:50.260Z,68.2
2017-09-06T06:54:50.904Z,67.9
2017-09-06T06:55:51.547Z,67.7
2017-09-06T06:56:52.191Z,67.6
2017-09-06T06:57:52.834Z,67.3
2017-09-06T06:58:53.479Z,67.4
2017-09-06T06:59:54.371Z,66.8
2017-09-06T07:00:55.016Z,66.7
2017-09-06T07:01:56.211Z,67.0
2017-09-06T07:02:56.856Z,66.9
2017-09-06T07:03:57.499Z,67.2
2017-09-06T07:04:58.396Z,67.0
2017-09-06T07:05:59.288Z,67.1
2017-09-06T07:07:00.031Z,67.3
2017-09-06T07:08:00.674Z,66.1
2017-09-06T07:09:01.319Z,66.6
2017-09-06T07:10:01.963Z,67.3
2017-09-06T07:11:02.609Z,67.1
2017-09-06T07:12:03.347Z,67.0
2017-09-06T07:13:03.989Z,66.8
2017-09-06T07:14:04.632Z,66.5
2017-09-06T07:15:05.276Z,66.5
2017-09-06T07:16:05.919Z,66.4
2017-09-06T07:17:06.562Z,65.9
2017-09-06T07:18:07.204Z,66.9
2017-09-06T07:19:07.851Z,67.1
2017-09-06T07:20:08.499Z,67.1
2017-09-06T07:21:09.141Z,67.3
2017-09-06T07:22:09.784Z,67.0
2017-09-06T07:23:10.429Z,67.1
2017-09-06T07:24:11.074Z,67.4
2017-09-06T07:25:11.868Z,67.2
2017-09-06T07:26:12.513Z,67.4
2017-09-06T07:27:13.157Z,67.1
2017-09-06T07:28:13.802Z,67.3
2017-09-06T07:29:14.446Z,66.1
2017-09-06T07:30:15.092Z,66.1
2017-09-06T07:31:15.733Z,66.0
2017-09-06T07:32:16.425Z,66.1
2017-09-06T07:33:17.068Z,66.5
2017-09-06T07:34:17.711Z,66.5
2017-09-06T07:35:18.354Z,67.3
2017-09-06T07:36:18.999Z,67.3
2017-09-06T07:37:19.743Z,66.9
2017-09-06T07:38:20.388Z,66.5
2017-09-06T07:39:21.034Z,66.0
2017-09-06T07:40:21.677Z,65.9
2017-09-06T07:41:22.673Z,67.0
2017-09-06T07:42:23.317Z,67.7
2017-09-06T07:43:23.960Z,67.5
2017-09-06T07:44:24.604Z,68.0
2017-09-06T07:45:25.250Z,67.8
2017-09-06T07:46:26.043Z,67.8
2017-09-06T07:47:26.687Z,67.7
2017-09-06T07:48:27.333Z,67.8
2017-09-06T07:49:27.975Z,67.8
2017-09-06T07:50:28.621Z,68.0
2017-09-06T07:51:29.264Z,68.2
2017-09-06T07:52:29.909Z,68.3
2017-09-06T07:53:30.553Z,68.4
2017-09-06T07:54:31.198Z,68.4
2017-09-06T07:55:31.842Z,68.3
2017-09-06T07:56:32.488Z,68.4
2017-09-06T07:57:33.132Z,68.2
2017-09-06T07:58:33.775Z,68.3
2017-09-06T07:59:34.421Z,68.2
2017-09-06T08:00:35.067Z,68.0
2017-09-06T08:01:35.911Z,68.4
2017-09-06T08:02:36.554Z,68.2
2017-09-06T08:03:37.298Z,68.3
2017-09-06T08:04:37.943Z,69.6
2017-09-06T08:05:38.836Z,69.5
2017-09-06T08:06:39.632Z,69.5
2017-09-06T08:07:40.312Z,69.1
2017-09-06T08:08:40.955Z,69.3
2017-09-06T08:09:41.599Z,68.6
2017-09-06T08:10:42.243Z,68.4
2017-09-06T08:11:42.987Z,68.3
2017-09-06T08:12:43.631Z,68.6
2017-09-06T08:13:44.282Z,68.3
2017-09-06T08:14:44.919Z,68.4
2017-09-06T08:15:45.566Z,67.7
2017-09-06T08:16:46.210Z,67.6
2017-09-06T08:17:46.855Z,67.8
2017-09-06T08:18:47.502Z,68.1
2017-09-06T08:19:48.148Z,67.8
2017-09-06T08:20:48.789Z,67.7
2017-09-06T08:21:49.437Z,67.4
2017-09-06T08:22:50.081Z,67.3
2017-09-06T08:23:50.829Z,67.5
2017-09-06T08:24:51.973Z,67.3
2017-09-06T08:25:52.617Z,67.4
2017-09-06T08:26:53.261Z,67.6
2017-09-06T08:27:53.904Z,67.6
2017-09-06T08:28:54.548Z,67.2
2017-09-06T08:29:55.193Z,67.4
2017-09-06T08:30:56.187Z,66.7
2017-09-06T08:31:56.833Z,66.2
2017-09-06T08:32:57.477Z,66.3
2017-09-06T08:33:58.123Z,66.5
2017-09-06T08:34:58.767Z,66.0
2017-09-06T08:35:59.412Z,65.9
2017-09-06T08:37:00.056Z,66.4
2017-09-06T08:38:00.801Z,66.0
2017-09-06T08:39:01.445Z,66.2
2017-09-06T08:40:02.092Z,66.6
2017-09-06T08:41:02.835Z,67.7
2017-09-06T08:42:03.579Z,68.5
2017-09-06T08:43:04.222Z,68.2
2017-09-06T08:44:04.889Z,68.3
2017-09-06T08:45:05.632Z,67.3
2017-09-06T08:46:06.275Z,67.0
2017-09-06T08:47:06.920Z,67.1
2017-09-06T08:48:07.564Z,66.3
2017-09-06T08:49:08.207Z,66.3
2017-09-06T08:50:08.852Z,66.2
2017-09-06T08:51:09.494Z,65.9
2017-09-06T08:52:10.141Z,65.7
2017-09-06T08:53:10.787Z,65.4
2017-09-06T08:54:11.431Z,65.9
2017-09-06T08:55:12.075Z,65.2
2017-09-06T08:56:12.719Z,65.5
2017-09-06T08:57:13.364Z,65.1
2017-09-06T08:58:14.008Z,64.9
2017-09-06T08:59:14.651Z,66.0
2017-09-06T09:00:15.298Z,64.9
2017-09-06T09:01:16.401Z,65.5
2017-09-06T09:02:17.033Z,65.0
2017-09-06T09:03:17.679Z,65.5
2017-09-06T09:04:18.324Z,65.8
2017-09-06T09:05:19.069Z,66.0
2017-09-06T09:06:19.716Z,65.3
2017-09-06T09:07:20.359Z,65.3
2017-09-06T09:08:21.006Z,65.2
2017-09-06T09:09:21.650Z,65.4
2017-09-06T09:10:22.296Z,65.2
2017-09-06T09:11:22.941Z,65.2
2017-09-06T09:12:23.586Z,65.4
2017-09-06T09:13:24.230Z,65.0
2017-09-06T09:14:24.875Z,65.1
2017-09-06T09:15:25.518Z,65.5
2017-09-06T09:16:26.163Z,64.8
2017-09-06T09:17:26.807Z,64.6
2017-09-06T09:18:27.453Z,64.9
2017-09-06T09:19:28.097Z,64.7
2017-09-06T09:20:28.993Z,64.7
2017-09-06T09:21:29.637Z,65.1
2017-09-06T09:22:30.282Z,64.9
2017-09-06T09:23:30.927Z,64.7
2017-09-06T09:24:31.572Z,64.6
2017-09-06T09:25:32.369Z,64.9
2017-09-06T09:26:33.011Z,64.9
2017-09-06T09:27:33.658Z,64.3
2017-09-06T09:28:34.403Z,64.4
2017-09-06T09:29:35.047Z,64.1
2017-09-06T09:30:35.691Z,63.9
2017-09-06T09:31:36.336Z,64.5
2017-09-06T09:32:36.980Z,64.6
2017-09-06T09:33:37.625Z,64.2
2017-09-06T09:34:38.267Z,64.0
2017-09-06T09:35:38.913Z,64.0
2017-09-06T09:36:39.562Z,63.7
2017-09-06T09:37:40.303Z,63.5
2017-09-06T09:38:40.950Z,63.0
2017-09-06T09:39:41.595Z,62.8
2017-09-06T09:40:42.241Z,63.0
2017-09-06T09:41:42.985Z,63.4
2017-09-06T09:42:43.632Z,62.8
2017-09-06T09:43:44.282Z,62.9
2017-09-06T09:44:45.028Z,62.6
2017-09-06T09:45:45.673Z,62.8
2017-09-06T09:46:46.320Z,63.4
2017-09-06T09:47:46.964Z,63.2
2017-09-06T09:48:47.611Z,63.1
2017-09-06T09:49:48.257Z,63.1
2017-09-06T09:50:48.901Z,62.8
2017-09-06T09:51:49.546Z,62.2
2017-09-06T09:52:50.193Z,62.5
2017-09-06T09:53:50.837Z,62.4
2017-09-06T09:54:51.483Z,62.5
2017-09-06T09:55:52.128Z,62.4
2017-09-06T09:56:52.774Z,61.9
2017-09-06T09:57:53.419Z,61.6
2017-09-06T09:58:54.165Z,62.4
2017-09-06T09:59:54.811Z,62.1
2017-09-06T10:00:55.455Z,61.5
2017-09-06T10:01:56.202Z,61.2
2017-09-06T10:02:56.847Z,61.5
2017-09-06T10:03:57.492Z,61.1
2017-09-06T10:04:58.142Z,61.5
2017-09-06T10:05:58.882Z,60.9
2017-09-06T10:06:59.778Z,61.4
2017-09-06T10:08:00.423Z,61.3
2017-09-06T10:09:01.069Z,61.4
2017-09-06T10:10:01.715Z,60.8
2017-09-06T10:11:02.362Z,60.8
2017-09-06T10:12:03.057Z,61.2
2017-09-06T10:13:03.701Z,60.9
2017-09-06T10:14:04.345Z,61.3
2017-09-06T10:15:04.990Z,61.0
2017-09-06T10:16:05.634Z,61.1
2017-09-06T10:17:06.429Z,61.3
2017-09-06T10:18:07.074Z,60.7
2017-09-06T10:19:07.719Z,61.4
2017-09-06T10:20:08.364Z,61.4
2017-09-06T10:21:09.009Z,61.7
2017-09-06T10:22:09.655Z,61.6
2017-09-06T10:23:10.300Z,60.9
2017-09-06T10:24:10.944Z,61.1
2017-09-06T10:25:11.689Z,60.9
2017-09-06T10:26:12.334Z,61.2
2017-09-06T10:27:13.180Z,61.4
2017-09-06T10:28:13.826Z,61.2
2017-09-06T10:29:14.469Z,60.0
2017-09-06T10:30:15.114Z,59.5
2017-09-06T10:31:16.008Z,58.6
2017-09-06T10:32:16.654Z,58.5
2017-09-06T10:33:17.450Z,59.1
2017-09-06T10:34:18.095Z,58.3
2017-09-06T10:35:18.742Z,57.9
2017-09-06T10:36:19.386Z,56.7
2017-09-06T10:37:20.484Z,56.2
2017-09-06T10:38:21.131Z,55.9
2017-09-06T10:39:21.775Z,54.9
2017-09-06T10:40:22.421Z,54.5
2017-09-06T10:41:23.163Z,54.5
2017-09-06T10:42:23.808Z,54.7
2017-09-06T10:43:24.454Z,54.2
2017-09-06T10:44:25.099Z,54.9
2017-09-06T10:45:25.748Z,55.7
2017-09-06T10:46:26.395Z,55.7
2017-09-06T10:47:27.037Z,55.9
2017-09-06T10:48:27.683Z,55.2
2017-09-06T10:49:28.329Z,54.5
2017-09-06T10:50:28.974Z,53.9
2017-09-06T10:51:29.623Z,54.8
2017-09-06T10:52:30.265Z,53.9
2017-09-06T10:53:30.911Z,54.3
2017-09-06T10:54:31.561Z,54.0
2017-09-06T10:55:32.209Z,54.0
2017-09-06T10:56:32.956Z,53.7
2017-09-06T10:57:33.598Z,53.3
2017-09-06T10:58:34.245Z,53.5
2017-09-06T10:59:34.889Z,53.4
2017-09-06T11:00:35.535Z,52.8
2017-09-06T11:01:36.281Z,53.5
2017-09-06T11:02:36.927Z,53.4
2017-09-06T11:03:37.573Z,53.5
2017-09-06T11:04:38.218Z,53.4
2017-09-06T11:05:38.865Z,53.4
2017-09-06T11:06:39.510Z,53.2
2017-09-06T11:07:40.156Z,53.3
2017-09-06T11:08:40.801Z,53.4
2017-09-06T11:09:41.455Z,53.4
2017-09-06T11:10:42.201Z,53.4
2017-09-06T11:11:43.096Z,53.1
2017-09-06T11:12:43.842Z,52.9
2017-09-06T11:13:44.487Z,52.9
2017-09-06T11:14:45.131Z,52.9
2017-09-06T11:15:45.776Z,53.2
2017-09-06T11:16:46.421Z,53.6
2017-09-06T11:17:47.166Z,53.0
2017-09-06T11:18:47.812Z,52.6
2017-09-06T11:19:48.457Z,53.7
2017-09-06T11:20:49.653Z,52.3
2017-09-06T11:21:50.301Z,52.3
2017-09-06T11:22:50.948Z,52.8
2017-09-06T11:23:51.592Z,52.4
2017-09-06T11:24:52.837Z,52.5
2017-09-06T11:25:53.484Z,52.2
2017-09-06T11:26:54.128Z,51.6
2017-09-06T11:27:54.775Z,51.3
2017-09-06T11:28:55.419Z,50.6
2017-09-06T11:29:56.067Z,50.8
2017-09-06T11:30:56.711Z,50.5
2017-09-06T11:31:57.359Z,51.3
2017-09-06T11:32:58.003Z,50.5
2017-09-06T11:33:58.647Z,50.2
2017-09-06T11:34:59.293Z,50.5
2017-09-06T11:35:59.939Z,50.5
2017-09-06T11:37:00.583Z,50.7
2017-09-06T11:38:01.229Z,50.8
2017-09-06T11:39:01.875Z,50.7
2017-09-06T11:40:02.771Z,50.8
2017-09-06T11:41:03.416Z,50.8
2017-09-06T11:42:04.061Z,50.6
2017-09-06T11:43:04.707Z,50.8
2017-09-06T11:44:05.353Z,50.7
2017-09-06T11:45:06.148Z,50.8
2017-09-06T11:46:06.942Z,51.0
2017-09-06T11:47:07.598Z,50.9
2017-09-06T11:48:08.433Z,50.7
2017-09-06T11:49:09.076Z,50.9
2017-09-06T11:50:09.722Z,51.2
2017-09-06T11:51:10.368Z,51.4
2017-09-06T11:52:11.010Z,50.6
2017-09-06T11:53:11.656Z,50.9
2017-09-06T11:54:12.304Z,50.6
2017-09-06T11:55:12.945Z,50.5
2017-09-06T11:56:13.589Z,50.4
2017-09-06T11:57:14.385Z,51.4
2017-09-06T11:58:15.036Z,51.0
2017-09-06T11:59:15.680Z,51.2
2017-09-06T12:00:16.474Z,51.6
2017-09-06T12:01:17.518Z,51.1
2017-09-06T12:02:18.165Z,50.5
2017-09-06T12:03:18.809Z,50.5
2017-09-06T12:04:19.458Z,50.5
2017-09-06T12:05:20.100Z,50.5
2017-09-06T12:06:20.748Z,50.2
2017-09-06T12:07:21.393Z,50.3
2017-09-06T12:08:22.037Z,50.4
2017-09-06T12:09:22.682Z,50.4
2017-09-06T12:10:23.480Z,50.5
2017-09-06T12:11:24.126Z,50.4
2017-09-06T12:12:24.771Z,50.6
2017-09-06T12:13:25.416Z,50.2
2017-09-06T12:14:26.061Z,50.7
2017-09-06T12:15:26.706Z,50.4
2017-09-06T12:16:27.354Z,50.3
2017-09-06T12:17:28.097Z,50.4
2017-09-06T12:18:28.744Z,50.5
2017-09-06T12:19:29.389Z,50.8
2017-09-06T12:20:30.036Z,50.2
2017-09-06T12:21:30.684Z,50.5
2017-09-06T12:22:31.328Z,48.9
2017-09-06T12:23:31.973Z,49.1
2017-09-06T12:24:32.619Z,49.6
2017-09-06T12:25:33.263Z,49.4
2017-09-06T12:26:33.910Z,49.0
2017-09-06T12:27:34.554Z,49.2
2017-09-06T12:28:35.201Z,48.7
2017-09-06T12:29:35.846Z,49.2
2017-09-06T12:30:36.492Z,48.9
2017-09-06T12:31:37.139Z,49.5
2017-09-06T12:32:37.989Z,48.8
2017-09-06T12:33:38.635Z,49.0
2017-09-06T12:34:39.434Z,49.0
2017-09-06T12:35:40.080Z,48.8
2017-09-06T12:36:40.724Z,49.2
2017-09-06T12:37:41.371Z,49.9
2017-09-06T12:38:42.016Z,49.2
2017-09-06T12:39:42.662Z,48.6
2017-09-06T12:40:43.308Z,49.0
2017-09-06T12:41:44.055Z,47.4
2017-09-06T12:42:44.704Z,46.4
2017-09-06T12:43:45.345Z,46.0
2017-09-06T12:44:45.991Z,45.9
2017-09-06T12:45:46.635Z,45.6
2017-09-06T12:46:47.281Z,47.1
2017-09-06T12:47:47.927Z,46.3
2017-09-06T12:48:48.573Z,46.0
2017-09-06T12:49:49.219Z,45.7
2017-09-06T12:50:49.865Z,45.3
2017-09-06T12:51:50.510Z,44.9
2017-09-06T12:52:51.156Z,45.1
2017-09-06T12:53:51.801Z,44.6
2017-09-06T12:54:52.447Z,44.8
2017-09-06T12:55:53.292Z,44.7
2017-09-06T12:56:54.438Z,44.9
2017-09-06T12:57:55.083Z,44.8
2017-09-06T12:58:55.730Z,44.5
2017-09-06T12:59:56.625Z,44.6
2017-09-06T13:00:57.271Z,44.3
2017-09-06T13:01:58.013Z,43.9
2017-09-06T13:02:58.656Z,44.7
2017-09-06T13:03:59.303Z,44.4
2017-09-06T13:04:59.949Z,44.0
2017-09-06T13:06:00.596Z,43.6
2017-09-06T13:07:01.341Z,43.3
2017-09-06T13:08:01.993Z,43.0
2017-09-06T13:09:02.640Z,43.4
2017-09-06T13:10:03.535Z,43.7
2017-09-06T13:11:04.180Z,43.3
2017-09-06T13:12:04.826Z,43.2
2017-09-06T13:13:05.571Z,43.0
2017-09-06T13:14:06.217Z,43.1
2017-09-06T13:15:06.861Z,43.3
2017-09-06T13:16:07.506Z,43.0
2017-09-06T13:17:08.652Z,43.2
2017-09-06T13:18:09.294Z,43.0
2017-09-06T13:19:09.940Z,43.0
2017-09-06T13:20:10.586Z,43.0
2017-09-06T13:21:11.230Z,42.9
2017-09-06T13:22:11.876Z,42.9
2017-09-06T13:23:12.522Z,43.0
2017-09-06T13:24:13.166Z,42.9
2017-09-06T13:25:13.812Z,43.0
2017-09-06T13:26:14.456Z,43.1
2017-09-06T13:27:15.103Z,42.7